Time;durP1;ratioP1;P1;durP2;ratioP2;P2;SDS_P1;SDS_P2;PMS_P1;PMS_P2;Temp;Humidity;BMP_temperature;BMP_pressure;BME280_temperature;BME280_humidity;BME280_pressure;Samples;Min_cycle;Max_cycle;Signal;HPM_P1;HPM_P2
2022/07/30 00:01:35;;;;;;;3.55;2.33;;;;;;;22.42;68.35;101257.78;5017431;28;102219;-55
2022/07/30 00:04:03;;;;;;;2.75;2.08;;;;;;;22.41;68.26;101256.16;5016758;28;104100;-55
2022/07/30 00:06:31;;;;;;;4.32;2.17;;;;;;;22.41;68.17;101261.72;5016516;28;101912;-55
2022/07/30 00:08:58;;;;;;;2.72;2.40;;;;;;;22.41;67.93;101258.94;5015705;28;102019;-55
2022/07/30 00:11:25;;;;;;;3.47;1.90;;;;;;;22.41;68.28;101268.06;5006641;28;102222;-55
2022/07/30 00:13:52;;;;;;;3.45;2.40;;;;;;;22.40;68.07;101260.09;5015646;28;104768;-55
2022/07/30 00:16:19;;;;;;;2.50;2.00;;;;;;;22.40;68.34;101260.91;5017159;28;101921;-55
2022/07/30 00:18:47;;;;;;;3.10;2.08;;;;;;;22.40;68.31;101262.88;5016505;28;102265;-55
2022/07/30 00:21:16;;;;;;;4.55;2.20;;;;;;;22.39;68.32;101264.81;5018056;28;102587;-55
2022/07/30 00:23:46;;;;;;;2.35;2.10;;;;;;;22.39;68.13;101261.22;5016486;28;103942;-55
2022/07/30 00:26:13;;;;;;;4.10;2.58;;;;;;;22.40;68.22;101257.31;5016888;28;102350;-55
2022/07/30 00:28:40;;;;;;;3.45;2.10;;;;;;;22.39;68.05;101258.47;5015154;28;102068;-55
2022/07/30 00:31:07;;;;;;;2.83;2.30;;;;;;;22.39;68.02;101264.81;5018046;28;102317;-55
2022/07/30 00:33:34;;;;;;;4.68;2.60;;;;;;;22.40;67.83;101251.78;5015758;28;103868;-55
2022/07/30 00:36:04;;;;;;;3.72;2.25;;;;;;;22.39;68.01;101255.69;5013936;28;102127;-55
2022/07/30 00:38:32;;;;;;;3.03;2.05;;;;;;;22.39;68.25;101261.22;5016384;28;102778;-55
2022/07/30 00:41:01;;;;;;;2.50;2.30;;;;;;;22.38;68.00;101256.84;5017115;28;102232;-55
2022/07/30 00:43:29;;;;;;;2.33;2.13;;;;;;;22.39;67.85;101261.22;5015351;28;104166;-55
2022/07/30 00:45:55;;;;;;;2.35;2.15;;;;;;;22.38;68.32;101262.38;5016356;28;102509;-55
2022/07/30 00:48:22;;;;;;;2.50;2.20;;;;;;;22.38;68.23;101256.84;5015969;28;102153;-55
2022/07/30 00:50:52;;;;;;;3.10;2.08;;;;;;;22.38;68.24;101251.28;5016663;28;103732;-55
2022/07/30 00:53:19;;;;;;;2.40;2.20;;;;;;;22.37;67.80;101244.13;5015017;28;104235;-55
2022/07/30 00:55:47;;;;;;;2.70;2.20;;;;;;;22.37;68.04;101239.41;5016782;28;102399;-55
2022/07/30 00:58:16;;;;;;;2.88;2.05;;;;;;;22.37;67.81;101246.91;5014973;28;102549;-55
2022/07/30 01:00:43;;;;;;;2.80;2.03;;;;;;;22.36;67.95;101236.94;5016061;28;102156;-55
2022/07/30 01:03:10;;;;;;;4.07;2.03;;;;;;;22.37;67.80;101238.59;5015596;28;104087;-55
2022/07/30 01:05:38;;;;;;;2.17;1.90;;;;;;;22.36;67.68;101239.72;5016551;28;102513;-55
2022/07/30 01:08:05;;;;;;;2.25;2.00;;;;;;;22.36;67.69;101236.94;5015144;28;102224;-56
2022/07/30 01:10:33;;;;;;;2.13;1.92;;;;;;;22.35;67.40;101233.38;5016237;28;102287;-55
2022/07/30 01:13:02;;;;;;;2.33;2.13;;;;;;;22.35;67.84;101236.13;5015288;28;103889;-55
2022/07/30 01:15:32;;;;;;;2.38;1.92;;;;;;;22.35;67.65;101230.59;5015092;28;102216;-55
2022/07/30 01:18:02;;;;;;;2.35;2.15;;;;;;;22.35;67.67;101235.34;5015046;28;102227;-55
2022/07/30 01:20:40;;;;;;;2.22;1.70;;;;;;;22.36;67.20;101223.91;5019450;28;102162;-55
2022/07/30 01:23:17;;;;;;;3.35;1.88;;;;;;;22.35;67.30;101222.28;5009694;28;103995;-55
2022/07/30 01:25:51;;;;;;;3.13;2.25;;;;;;;22.35;67.43;101222.28;5008557;28;102506;-55
2022/07/30 01:28:22;;;;;;;3.92;1.92;;;;;;;22.36;67.17;101225.84;5001346;28;102137;-55
2022/07/30 01:30:51;;;;;;;3.55;1.98;;;;;;;22.35;67.49;101230.59;5020349;28;102243;-55
2022/07/30 01:33:20;;;;;;;2.30;2.00;;;;;;;22.35;67.41;101225.03;5018265;28;103862;-55
2022/07/30 01:35:48;;;;;;;2.30;1.88;;;;;;;22.35;67.17;101224.25;5019137;28;101844;-55
2022/07/30 01:38:18;;;;;;;4.85;2.03;;;;;;;22.35;67.08;101221.47;4998653;28;102243;-55
2022/07/30 01:40:45;;;;;;;3.60;2.00;;;;;;;22.35;67.46;101224.25;4999449;28;102097;-55
2022/07/30 01:43:16;;;;;;;3.25;2.10;;;;;;;22.35;67.46;101229.78;4999032;28;103912;-55
2022/07/30 01:45:45;;;;;;;2.13;1.90;;;;;;;22.35;67.37;101229.78;4997605;28;102264;-55
2022/07/30 01:48:15;;;;;;;2.65;2.20;;;;;;;22.34;67.41;101222.63;4993819;28;102053;-55
2022/07/30 01:50:46;;;;;;;2.58;1.88;;;;;;;22.35;67.18;101224.25;4999258;28;102321;-55
2022/07/30 01:53:16;;;;;;;2.78;1.95;;;;;;;22.34;67.42;101219.84;4997990;28;103844;-55
2022/07/30 01:55:43;;;;;;;2.42;2.22;;;;;;;22.35;67.54;101224.25;4999108;28;102291;-55
2022/07/30 01:58:13;;;;;;;2.88;2.42;;;;;;;22.35;67.34;101224.25;4995297;28;102264;-56
2022/07/30 02:00:45;;;;;;;3.85;1.98;;;;;;;22.34;67.64;101220.66;4995781;28;102239;-55
2022/07/30 02:03:11;;;;;;;2.40;2.00;;;;;;;22.34;67.48;101217.06;4991574;28;103900;-55
2022/07/30 02:05:41;;;;;;;4.13;2.10;;;;;;;22.34;67.64;101217.06;4999098;28;102161;-55
2022/07/30 02:08:15;;;;;;;2.22;2.00;;;;;;;22.33;67.68;101215.47;4990007;28;102295;-55
2022/07/30 02:10:48;;;;;;;2.85;1.92;;;;;;;22.33;67.72;101213.50;4999676;28;102124;-55
2022/07/30 02:13:21;;;;;;;2.35;2.13;;;;;;;22.34;67.57;101217.88;4997997;28;103811;-55
2022/07/30 02:15:56;;;;;;;2.00;1.90;;;;;;;22.32;67.67;101209.09;4997295;28;102818;-55
2022/07/30 02:18:30;;;;;;;4.68;2.30;;;;;;;22.34;67.59;101217.06;4998323;28;101860;-56
2022/07/30 02:21:05;;;;;;;2.30;2.10;;;;;;;22.33;67.40;101221.81;4999087;28;102011;-56
2022/07/30 02:23:37;;;;;;;2.20;2.00;;;;;;;22.33;67.62;101215.47;4996636;28;103862;-55
2022/07/30 02:26:05;;;;;;;2.47;2.00;;;;;;;22.33;67.68;101221.81;4998616;28;102232;-56
2022/07/30 02:28:33;;;;;;;;;;;;;;;22.34;67.46;101222.63;4994705;28;103231;-55
2022/07/30 02:31:02;;;;;;;2.60;1.85;;;;;;;22.33;67.21;101219.03;4995611;28;102284;-55
2022/07/30 02:33:36;;;;;;;2.28;2.00;;;;;;;22.33;67.31;101207.16;4997293;28;104132;-55
2022/07/30 02:36:08;;;;;;;2.83;2.33;;;;;;;22.33;67.43;101221.00;4998384;28;102433;-55
2022/07/30 02:38:39;;;;;;;2.15;1.90;;;;;;;22.34;67.35;101222.63;4997455;28;102091;-55
2022/07/30 02:41:09;;;;;;;2.53;2.13;;;;;;;22.33;67.56;101209.91;4988093;27;102160;-55
2022/07/30 02:43:39;;;;;;;3.63;2.25;;;;;;;22.34;67.64;101211.53;5027156;27;103982;-55
2022/07/30 02:46:11;;;;;;;3.92;1.92;;;;;;;22.34;67.34;101214.31;5016163;28;102551;-55
2022/07/30 02:48:38;;;;;;;2.55;1.98;;;;;;;22.34;67.81;101211.53;5016511;28;102414;-55
2022/07/30 02:51:07;;;;;;;4.35;2.13;;;;;;;22.31;67.92;101202.72;5019089;28;102144;-55
2022/07/30 02:53:35;;;;;;;;;;;;;;;22.32;67.75;101211.84;5014475;28;104098;-55
2022/07/30 02:56:04;;;;;;;2.72;1.90;;;;;;;22.33;68.14;101215.47;5018487;28;102186;-55
2022/07/30 02:58:35;;;;;;;3.30;1.90;;;;;;;22.34;67.71;101217.06;5017919;27;102483;-55
2022/07/30 03:01:05;;;;;;;3.28;1.90;;;;;;;22.33;67.30;101216.28;5016825;28;102199;-55
2022/07/30 03:03:35;;;;;;;2.10;1.90;;;;;;;22.35;67.67;101219.50;5017574;28;103925;-55
2022/07/30 03:06:05;;;;;;;3.05;2.00;;;;;;;22.35;67.64;101221.47;5018330;28;102252;-55
2022/07/30 03:08:33;;;;;;;2.90;1.80;;;;;;;22.33;67.71;101227.38;5017819;28;102255;-55
2022/07/30 03:11:02;;;;;;;2.88;2.15;;;;;;;22.34;67.68;101225.41;5017361;28;102277;-55
2022/07/30 03:13:33;;;;;;;2.30;2.10;;;;;;;22.33;67.30;101221.00;5015920;27;103919;-55
2022/07/30 03:16:03;;;;;;;3.90;2.25;;;;;;;22.34;67.46;101219.84;5017727;28;102305;-55
2022/07/30 03:18:34;;;;;;;3.22;2.30;;;;;;;22.33;67.50;101218.25;5010908;28;102294;-55
2022/07/30 03:21:04;;;;;;;1.98;1.83;;;;;;;22.33;67.69;101218.25;5000000;28;103337;-55
2022/07/30 03:23:36;;;;;;;1.90;1.80;;;;;;;22.33;67.55;101212.69;5005384;28;104101;-55
2022/07/30 03:26:07;;;;;;;2.03;1.80;;;;;;;22.33;67.45;101221.00;4998144;28;102554;-55
2022/07/30 03:28:40;;;;;;;4.10;2.10;;;;;;;22.33;67.42;101219.03;4997147;28;103216;-55
2022/07/30 03:31:09;;;;;;;3.10;1.95;;;;;;;22.35;67.49;101213.16;4997536;28;102589;-55
2022/07/30 03:33:37;;;;;;;1.88;1.77;;;;;;;22.33;67.51;101209.91;4996322;28;104026;-55
2022/07/30 03:36:05;;;;;;;;;;;;;;;22.34;67.44;101217.88;4997965;28;102165;-55
2022/07/30 03:38:31;;;;;;;2.28;1.75;;;;;;;22.33;67.66;101212.69;4996423;28;104726;-55
2022/07/30 03:41:01;;;;;;;4.15;1.98;;;;;;;22.34;67.41;101222.63;4997864;28;102487;-55
2022/07/30 03:43:30;;;;;;;2.40;2.10;;;;;;;22.34;67.51;101217.06;4996752;28;103915;-55
2022/07/30 03:45:57;;;;;;;2.60;1.90;;;;;;;22.35;67.78;101215.91;4996793;28;102026;-55
2022/07/30 03:48:26;;;;;;;3.22;2.00;;;;;;;22.34;67.54;101214.31;4996060;28;102579;-55
2022/07/30 03:50:55;;;;;;;2.35;1.77;;;;;;;22.34;67.74;101211.53;4979538;28;102113;-55
2022/07/30 03:53:26;;;;;;;2.55;2.05;;;;;;;22.33;67.53;101209.91;4980477;28;103842;-55
2022/07/30 03:55:54;;;;;;;2.20;1.83;;;;;;;22.35;67.63;101210.38;4995459;28;102272;-55
2022/07/30 03:58:21;;;;;;;2.28;1.95;;;;;;;22.35;67.88;101207.59;4988137;28;102187;-55
2022/07/30 04:00:50;;;;;;;3.63;2.45;;;;;;;22.35;67.79;101213.16;4996581;28;102318;-55
2022/07/30 04:03:23;;;;;;;3.83;2.10;;;;;;;22.35;68.10;101213.16;4995533;28;104050;-55
2022/07/30 04:05:50;;;;;;;2.53;2.03;;;;;;;22.34;67.57;101204.03;4997250;28;102419;-55
2022/07/30 04:08:21;;;;;;;1.70;1.60;;;;;;;22.36;67.51;101204.50;4981327;28;102160;-55
2022/07/30 04:10:50;;;;;;;3.53;1.70;;;;;;;22.35;67.91;101213.94;4977865;28;102193;-55
2022/07/30 04:13:18;;;;;;;3.60;2.17;;;;;;;22.36;67.86;101212.00;4996787;28;103952;-55
2022/07/30 04:15:53;;;;;;;2.60;1.80;;;;;;;22.36;67.93;101204.50;4986150;28;102317;-56
2022/07/30 04:18:23;;;;;;;2.75;1.90;;;;;;;22.37;68.05;101210.88;4997159;28;102344;-55
2022/07/30 04:20:52;;;;;;;3.15;1.80;;;;;;;22.38;68.20;101215.25;4997429;28;102153;-55
2022/07/30 04:23:21;;;;;;;2.95;2.25;;;;;;;22.38;68.13;101206.94;4996361;28;104148;-55
2022/07/30 04:25:47;;;;;;;;;;;;;;;22.38;67.61;101212.47;4999170;28;102222;-55
2022/07/30 04:28:14;;;;;;;2.85;1.95;;;;;;;22.38;67.96;101213.28;5000567;28;102297;-55
2022/07/30 04:30:42;;;;;;;3.05;2.08;;;;;;;22.40;67.89;101218.50;4997257;28;102258;-55
2022/07/30 04:33:08;;;;;;;2.55;1.70;;;;;;;22.40;67.98;101210.19;4995268;28;103973;-55
2022/07/30 04:35:35;;;;;;;2.40;1.95;;;;;;;22.41;67.84;101211.81;5008526;27;102228;-55
2022/07/30 04:38:03;;;;;;;2.77;1.93;;;;;;;22.40;67.81;101207.41;5007392;28;102487;-55
2022/07/30 04:40:31;;;;;;;2.95;2.10;;;;;;;22.41;67.69;101207.06;4996970;28;102155;-55
2022/07/30 04:42:58;;;;;;;5.35;2.25;;;;;;;22.43;67.07;101215.03;5000826;28;104501;-55
2022/07/30 04:45:26;;;;;;;4.43;2.25;;;;;;;22.45;66.39;101207.19;5002658;28;102223;-55
2022/07/30 04:47:53;;;;;;;3.38;1.90;;;;;;;22.46;67.02;101217.13;4995908;28;102286;-55
2022/07/30 04:50:23;;;;;;;3.83;2.15;;;;;;;22.47;66.83;101213.22;4996353;28;102177;-55
2022/07/30 04:52:51;;;;;;;3.08;1.75;;;;;;;22.47;66.45;101207.69;4999637;28;103934;-55
2022/07/30 04:55:19;;;;;;;2.47;2.10;;;;;;;22.48;67.80;101212.06;4998164;28;102201;-56
2022/07/30 04:57:50;;;;;;;4.22;1.90;;;;;;;22.51;67.00;101216.94;4999439;28;102314;-56
2022/07/30 05:00:17;;;;;;;2.78;1.92;;;;;;;22.52;67.62;101213.81;4998429;28;102244;-55
2022/07/30 05:02:47;;;;;;;2.25;2.05;;;;;;;22.54;67.76;101216.25;5001507;28;104136;-55
2022/07/30 05:05:16;;;;;;;2.50;2.08;;;;;;;22.53;68.02;101214.63;4996021;28;102372;-55
2022/07/30 05:07:44;;;;;;;2.83;1.90;;;;;;;22.54;67.73;101222.63;4982732;28;102070;-55
2022/07/30 05:10:16;;;;;;;3.00;2.20;;;;;;;22.57;67.69;101225.84;4977476;28;102016;-55
2022/07/30 05:12:44;;;;;;;4.45;2.65;;;;;;;22.55;67.92;101223.41;4986752;28;103988;-55
2022/07/30 05:15:13;;;;;;;2.83;2.20;;;;;;;22.58;67.17;101228.28;4996122;28;102538;-55
2022/07/30 05:17:41;;;;;;;2.85;2.00;;;;;;;22.60;67.22;101231.53;4995920;28;102413;-55
2022/07/30 05:20:08;;;;;;;5.82;2.35;;;;;;;22.59;66.47;101235.44;4993644;28;102526;-55
2022/07/30 05:22:35;;;;;;;5.10;2.50;;;;;;;22.58;67.20;101227.47;4995107;28;103915;-55
2022/07/30 05:25:05;;;;;;;3.50;2.40;;;;;;;22.60;67.38;101228.75;4979450;28;102232;-55
2022/07/30 05:27:32;;;;;;;2.63;2.40;;;;;;;22.58;66.89;101233.84;4976193;28;101918;-55
2022/07/30 05:29:58;;;;;;;3.38;2.47;;;;;;;22.59;67.27;101232.69;4984329;28;102208;-55
2022/07/30 05:32:26;;;;;;;3.40;2.47;;;;;;;22.59;67.44;101229.91;5015510;27;104020;-55
2022/07/30 05:34:57;;;;;;;2.97;2.38;;;;;;;22.61;66.50;101243.44;4996757;28;102432;-55
2022/07/30 05:37:23;;;;;;;3.00;2.70;;;;;;;22.60;67.21;101245.38;5008364;28;103340;-55
2022/07/30 05:39:50;;;;;;;3.78;2.45;;;;;;;22.59;67.36;101246.56;4996682;28;102271;-55
2022/07/30 05:42:17;;;;;;;3.13;1.90;;;;;;;22.60;67.22;101248.16;4992546;28;108325;-55
2022/07/30 05:44:44;;;;;;;3.35;2.42;;;;;;;22.61;66.73;101260.91;4995260;28;101976;-55
2022/07/30 05:47:11;;;;;;;2.75;2.42;;;;;;;22.64;66.26;101253.84;4995386;28;102261;-55
2022/07/30 05:49:41;;;;;;;3.33;2.60;;;;;;;22.66;65.78;101252.38;4996904;28;102177;-55
2022/07/30 05:52:08;;;;;;;2.50;2.30;;;;;;;22.70;66.26;101252.50;4995626;28;104118;-55
2022/07/30 05:54:34;;;;;;;2.83;2.50;;;;;;;22.71;65.48;101243.81;4995348;28;102178;-55
2022/07/30 05:57:01;;;;;;;3.20;2.10;;;;;;;22.74;65.43;101253.44;4995032;28;102346;-55
2022/07/30 05:59:29;;;;;;;2.95;2.53;;;;;;;22.75;65.40;101250.31;4989935;28;102475;-55
2022/07/30 06:01:56;;;;;;;2.53;2.30;;;;;;;22.78;64.95;101254.38;4984149;28;104019;-55
2022/07/30 06:04:23;;;;;;;3.65;2.25;;;;;;;22.78;64.60;101255.16;4994584;28;102095;-55
2022/07/30 06:06:51;;;;;;;4.82;2.20;;;;;;;22.79;64.16;101254.03;4995546;28;102016;-55
2022/07/30 06:09:18;;;;;;;2.50;2.30;;;;;;;22.78;64.52;101246.84;4993579;28;102424;-55
2022/07/30 06:11:45;;;;;;;3.53;2.58;;;;;;;22.77;64.64;101242.47;4978246;28;104527;-55
2022/07/30 06:14:11;;;;;;;4.28;2.53;;;;;;;22.76;65.68;101240.03;4985652;28;102433;-55
2022/07/30 06:16:39;;;;;;;2.58;2.33;;;;;;;22.76;65.41;101235.28;4998296;28;102377;-55
2022/07/30 06:19:06;;;;;;;3.08;2.30;;;;;;;22.76;65.31;101240.84;4999578;28;102243;-55
2022/07/30 06:21:33;;;;;;;3.20;2.28;;;;;;;22.76;65.80;101243.63;4997667;28;103946;-55
2022/07/30 06:24:04;;;;;;;3.28;2.33;;;;;;;22.77;65.27;101245.22;4997705;28;102252;-55
2022/07/30 06:26:31;;;;;;;3.42;2.55;;;;;;;22.76;66.39;101243.63;4997896;28;102285;-55
2022/07/30 06:29:00;;;;;;;2.70;2.50;;;;;;;22.76;65.65;101240.84;5005051;28;102563;-55
2022/07/30 06:31:27;;;;;;;3.00;2.25;;;;;;;22.77;65.12;101241.66;5017793;28;103903;-55
2022/07/30 06:33:55;;;;;;;3.10;2.47;;;;;;;22.77;65.94;101242.47;5018556;28;102335;-55
2022/07/30 06:36:23;;;;;;;3.47;2.87;;;;;;;22.79;65.83;101233.78;5017630;28;102315;-55
2022/07/30 06:38:54;;;;;;;2.70;2.40;;;;;;;22.79;65.05;101231.00;5018798;28;102530;-55
2022/07/30 06:41:22;;;;;;;2.80;2.15;;;;;;;22.81;65.81;101231.50;5018214;28;103923;-55
2022/07/30 06:43:49;;;;;;;2.60;2.10;;;;;;;22.83;65.41;101236.69;5016451;28;103791;-55
2022/07/30 06:46:16;;;;;;;2.65;1.95;;;;;;;22.84;65.50;101230.00;5016818;28;102522;-55
2022/07/30 06:48:43;;;;;;;3.50;2.35;;;;;;;22.84;64.62;101225.25;5019168;28;102123;-55
2022/07/30 06:51:11;;;;;;;2.87;2.53;;;;;;;22.83;64.71;101222.81;5015709;28;104020;-55
2022/07/30 06:53:39;;;;;;;4.40;2.10;;;;;;;22.85;65.10;101223.28;5008630;28;102667;-55
2022/07/30 06:56:05;;;;;;;4.28;2.45;;;;;;;22.86;64.21;101234.03;5015960;28;102424;-55
2022/07/30 06:58:35;;;;;;;2.67;2.40;;;;;;;22.88;64.73;101228.97;5018488;28;102224;-55
2022/07/30 07:01:01;;;;;;;2.77;2.37;;;;;;;22.91;64.64;101230.25;5017698;28;104126;-55
2022/07/30 07:03:28;;;;;;;2.58;2.38;;;;;;;22.92;64.81;101226.34;5018270;27;102023;-55
2022/07/30 07:05:54;;;;;;;3.55;2.60;;;;;;;22.94;64.62;101232.38;4993397;28;102923;-55
2022/07/30 07:08:22;;;;;;;2.87;2.40;;;;;;;22.93;65.45;101231.53;4995475;28;103294;-55
2022/07/30 07:10:49;;;;;;;4.03;2.30;;;;;;;22.96;65.51;101243.94;4994823;28;103939;-55
2022/07/30 07:13:16;;;;;;;5.25;2.28;;;;;;;22.97;65.93;101228.91;4998356;28;102571;-55
2022/07/30 07:15:46;;;;;;;3.00;2.33;;;;;;;22.99;65.15;101232.16;4993976;28;102117;-55
2022/07/30 07:18:16;;;;;;;2.97;2.40;;;;;;;23.00;64.74;101233.75;4997926;28;102667;-55
2022/07/30 07:20:45;;;;;;;3.33;2.45;;;;;;;23.02;66.27;101225.91;4998176;28;104028;-55
2022/07/30 07:23:11;;;;;;;3.50;2.15;;;;;;;23.03;66.15;101227.53;4998688;28;102777;-55
2022/07/30 07:25:40;;;;;;;3.38;2.25;;;;;;;23.05;63.03;101230.78;4997825;28;102315;-55
2022/07/30 07:28:06;;;;;;;4.75;2.40;;;;;;;23.08;63.63;101229.25;4999848;28;102148;-55
2022/07/30 07:30:33;;;;;;;5.05;2.72;;;;;;;23.08;62.99;101223.72;5013799;28;103826;-55
2022/07/30 07:33:02;;;;;;;4.03;2.00;;;;;;;23.08;62.92;101235.66;5002818;28;101970;-55
2022/07/30 07:35:29;;;;;;;;;;;;;;;23.10;63.07;101222.22;4998301;28;102066;-55
2022/07/30 07:37:55;;;;;;;4.53;2.20;;;;;;;23.11;63.92;101229.38;4999893;28;102150;-55
2022/07/30 07:40:22;;;;;;;5.22;2.28;;;;;;;23.12;62.93;101225.47;4998165;28;104098;-55
2022/07/30 07:42:49;;;;;;;3.92;2.55;;;;;;;23.12;63.42;101231.03;4998503;28;102201;-55
2022/07/30 07:45:16;;;;;;;4.35;2.22;;;;;;;23.13;63.33;101227.09;4998184;28;101982;-55
2022/07/30 07:47:43;;;;;;;4.03;2.30;;;;;;;23.11;64.22;101226.63;4992725;28;102389;-55
2022/07/30 07:50:14;;;;;;;4.50;2.60;;;;;;;23.10;63.82;101225.00;5007866;28;104276;-55
2022/07/30 07:52:41;;;;;;;5.53;2.60;;;;;;;23.09;64.40;101219.81;4996525;28;102003;-55
2022/07/30 07:55:09;;;;;;;3.00;2.70;;;;;;;23.08;64.62;101218.16;4996361;28;103115;-55
2022/07/30 07:57:39;;;;;;;3.75;2.47;;;;;;;23.09;65.12;101219.81;4997631;28;102287;-55
2022/07/30 08:00:08;;;;;;;4.13;2.67;;;;;;;23.09;65.67;101208.69;4997725;28;104077;-55
2022/07/30 08:02:35;;;;;;;3.60;2.13;;;;;;;23.10;65.75;101215.88;4992105;28;102722;-55
2022/07/30 08:05:02;;;;;;;2.28;2.05;;;;;;;23.11;65.45;101212.72;4996607;28;102030;-55
2022/07/30 08:07:31;;;;;;;4.65;2.22;;;;;;;23.13;65.53;101201.31;4988919;28;102120;-55
2022/07/30 08:09:58;;;;;;;;;;;;;;;23.13;64.14;101198.53;4993518;28;103850;-55
2022/07/30 08:12:26;;;;;;;4.75;2.28;;;;;;;23.14;64.94;101200.13;4997669;28;102235;-55
2022/07/30 08:14:54;;;;;;;2.97;2.42;;;;;;;23.15;64.88;101204.53;4997176;28;102034;-55
2022/07/30 08:17:22;;;;;;;4.73;2.33;;;;;;;23.16;64.55;101203.38;4991907;28;102622;-55
2022/07/30 08:19:48;;;;;;;3.58;2.30;;;;;;;23.16;64.25;101206.97;5004335;27;103831;-55
2022/07/30 08:22:16;;;;;;;5.40;2.43;;;;;;;23.14;64.94;101200.94;5013578;28;102427;-55
2022/07/30 08:24:45;;;;;;;3.00;2.10;;;;;;;23.15;65.35;101199.81;4996727;28;102042;-57
2022/07/30 08:27:11;;;;;;;2.70;2.20;;;;;;;23.16;65.42;101192.28;5009834;28;101942;-55
2022/07/30 08:29:38;;;;;;;2.75;2.08;;;;;;;23.17;65.28;101191.94;4995741;28;104082;-55
2022/07/30 08:32:05;;;;;;;3.67;2.35;;;;;;;23.17;64.24;101199.44;4997038;28;101967;-55
2022/07/30 08:34:33;;;;;;;5.13;2.45;;;;;;;23.18;63.14;101195.50;4997072;28;102157;-55
2022/07/30 08:36:59;;;;;;;3.92;2.42;;;;;;;23.19;63.32;101188.81;4995640;28;102184;-55
2022/07/30 08:39:26;;;;;;;5.45;2.00;;;;;;;23.19;63.23;101192.41;4996391;28;103857;-55
2022/07/30 08:41:57;;;;;;;3.58;2.15;;;;;;;23.20;64.18;101188.47;4997405;28;102261;-55
2022/07/30 08:44:25;;;;;;;5.90;2.40;;;;;;;23.19;62.76;101192.41;4996719;28;102199;-55
2022/07/30 08:46:55;;;;;;;4.20;2.10;;;;;;;23.21;64.65;101195.63;4997865;28;102243;-55
2022/07/30 08:49:23;;;;;;;3.20;2.30;;;;;;;23.20;62.96;101194.03;4996674;28;103770;-55
2022/07/30 08:51:50;;;;;;;5.65;1.83;;;;;;;23.20;64.05;101196.00;4997441;28;101946;-55
2022/07/30 08:54:18;;;;;;;;;;;;;;;23.20;64.19;101202.34;4997582;28;102934;-55
2022/07/30 08:56:48;;;;;;;4.35;2.00;;;;;;;23.20;64.96;101198.75;4997701;28;102064;-55
2022/07/30 08:59:16;;;;;;;2.78;2.03;;;;;;;23.20;65.21;101198.75;4995710;28;103887;-55
2022/07/30 09:01:43;;;;;;;4.70;2.65;;;;;;;23.19;65.34;101197.97;4997024;28;102043;-55
2022/07/30 09:04:13;;;;;;;3.78;1.90;;;;;;;23.20;64.22;101194.03;4997173;28;102331;-55
2022/07/30 09:06:41;;;;;;;3.75;2.40;;;;;;;23.20;64.11;101193.22;4997657;28;102373;-55
2022/07/30 09:09:07;;;;;;;2.22;2.03;;;;;;;23.22;62.56;101190.88;4997248;28;104322;-55
2022/07/30 09:11:37;;;;;;;2.20;2.00;;;;;;;23.22;64.34;101182.56;4996521;28;102435;-55
2022/07/30 09:14:08;;;;;;;4.00;2.20;;;;;;;23.23;63.74;101181.41;4994844;28;102007;-55
2022/07/30 09:16:39;;;;;;;4.00;2.20;;;;;;;23.21;64.95;101178.97;5011848;27;102850;-56
2022/07/30 09:19:15;;;;;;;4.07;2.08;;;;;;;23.21;64.48;101184.53;5013623;27;104300;-57
2022/07/30 09:21:42;;;;;;;11.63;2.67;;;;;;;23.28;63.35;101186.72;5014695;28;102153;-56
2022/07/30 09:24:11;;;;;;;6.88;2.50;;;;;;;23.26;64.01;101178.75;5014788;28;102152;-56
2022/07/30 09:26:53;;;;;;;3.92;1.90;;;;;;;23.21;64.01;101173.41;5015159;28;102247;-56
2022/07/30 09:29:22;;;;;;;3.15;1.95;;;;;;;23.21;65.06;101176.19;5011478;28;103913;-56
2022/07/30 09:31:59;;;;;;;4.03;1.98;;;;;;;23.21;63.94;101178.97;5017365;28;102228;-55
2022/07/30 09:34:28;;;;;;;4.18;2.42;;;;;;;23.19;62.79;101181.31;5016266;28;102042;-56
2022/07/30 09:36:56;;;;;;;7.00;2.50;;;;;;;23.20;64.05;101177.34;5014986;28;102266;-55
2022/07/30 09:39:28;;;;;;;3.15;2.42;;;;;;;23.19;61.35;101181.31;4999512;28;103852;-55
2022/07/30 09:41:55;;;;;;;4.20;2.22;;;;;;;23.20;62.86;101182.09;5008156;28;102482;-55
2022/07/30 09:44:23;;;;;;;5.53;2.38;;;;;;;23.18;63.05;101176.88;5020717;28;101972;-55
2022/07/30 09:46:50;;;;;;;4.97;2.33;;;;;;;23.18;62.96;101178.84;5021829;28;102081;-56
2022/07/30 09:49:22;;;;;;;2.75;2.40;;;;;;;23.16;61.76;101181.97;5018634;28;103976;-56
2022/07/30 09:51:49;;;;;;;3.83;2.38;;;;;;;23.16;65.03;101186.72;5019216;28;103665;-56
2022/07/30 09:54:18;;;;;;;2.58;2.17;;;;;;;23.15;62.61;101177.59;5018303;28;102436;-56
2022/07/30 09:56:46;;;;;;;3.63;2.30;;;;;;;23.13;63.29;101170.75;5017255;28;102184;-55
2022/07/30 09:59:26;;;;;;;4.00;2.58;;;;;;;23.13;64.20;101174.34;5017473;28;104070;-56
2022/07/30 10:01:55;;;;;;;2.40;2.20;;;;;;;23.14;64.29;101172.38;5014675;28;102252;-56
2022/07/30 10:04:25;;;;;;;3.95;2.35;;;;;;;23.14;64.95;101170.41;5016456;28;102144;-56
2022/07/30 10:06:54;;;;;;;2.63;2.42;;;;;;;23.15;62.64;101169.28;5020950;28;102028;-56
2022/07/30 10:09:25;;;;;;;5.20;2.13;;;;;;;23.15;64.20;101169.28;5018717;28;103735;-56
2022/07/30 10:11:56;;;;;;;2.75;1.90;;;;;;;23.15;64.61;101180.38;5017149;27;102288;-56
2022/07/30 10:14:29;;;;;;;3.15;2.10;;;;;;;23.15;64.16;101173.97;5019279;28;102004;-56
2022/07/30 10:16:55;;;;;;;2.50;2.28;;;;;;;23.13;65.43;101170.75;5020230;28;101990;-56
2022/07/30 10:19:23;;;;;;;3.50;2.67;;;;;;;23.10;63.69;101174.22;5019148;28;103974;-56
2022/07/30 10:21:52;;;;;;;3.50;2.40;;;;;;;23.11;65.25;101171.09;5019981;28;101970;-56
2022/07/30 10:24:19;;;;;;;3.55;2.58;;;;;;;23.10;63.43;101171.44;5020056;28;102409;-56
2022/07/30 10:26:48;;;;;;;3.05;1.98;;;;;;;23.11;64.69;101162.75;5020556;28;102323;-56
2022/07/30 10:29:16;;;;;;;2.78;2.38;;;;;;;23.11;62.25;101173.88;5019324;28;103878;-56
2022/07/30 10:31:50;;;;;;;2.65;2.28;;;;;;;23.10;64.09;101165.91;5020382;28;101981;-56
2022/07/30 10:34:19;;;;;;;4.13;2.50;;;;;;;23.10;65.43;101166.69;5019612;28;101858;-56
2022/07/30 10:36:55;;;;;;;3.03;2.30;;;;;;;23.11;64.13;101171.09;5021045;28;102277;-56
2022/07/30 10:39:28;;;;;;;2.67;2.25;;;;;;;23.08;65.06;101163.47;5019347;28;103887;-56
2022/07/30 10:42:06;;;;;;;2.25;1.90;;;;;;;23.10;66.23;101161.16;5018457;28;102243;-56
2022/07/30 10:44:54;;;;;;;3.47;2.15;;;;;;;23.08;63.93;101157.94;5017614;28;102504;-55
2022/07/30 10:47:24;;;;;;;2.75;1.92;;;;;;;23.10;63.21;101160.34;5016702;28;101920;-55
2022/07/30 10:50:08;;;;;;;2.58;2.38;;;;;;;23.09;65.32;101147.63;5013468;28;103957;-56
2022/07/30 10:52:50;;;;;;;4.50;2.22;;;;;;;23.05;65.48;101155.84;4995231;28;102434;-56
2022/07/30 10:55:21;;;;;;;2.58;2.38;;;;;;;23.03;65.45;101156.16;4997776;28;102862;-56
2022/07/30 10:58:06;;;;;;;3.45;2.53;;;;;;;23.03;65.36;101155.34;4999933;28;102280;-57
2022/07/30 11:00:34;;;;;;;3.42;2.47;;;;;;;23.05;64.42;101158.63;4997940;28;104099;-56
2022/07/30 11:03:22;;;;;;;4.15;2.40;;;;;;;23.05;63.80;101153.06;4999402;28;102029;-56
2022/07/30 11:06:27;;;;;;;4.88;2.60;;;;;;;23.07;62.72;101145.19;4999517;28;102228;-56
2022/07/30 11:08:54;;;;;;;3.22;2.55;;;;;;;23.06;64.08;101154.66;4977279;28;103549;-56
2022/07/30 11:11:44;;;;;;;2.80;2.20;;;;;;;23.06;64.66;101151.91;4992504;28;103862;-56
2022/07/30 11:14:11;;;;;;;5.30;2.40;;;;;;;23.04;64.82;101140.31;4999544;28;102149;-56
2022/07/30 11:16:59;;;;;;;3.63;2.63;;;;;;;23.03;63.85;101149.81;4993016;28;103037;-56
2022/07/30 11:19:27;;;;;;;2.75;2.50;;;;;;;23.03;63.65;101144.25;4998783;28;102268;-56
2022/07/30 11:22:24;;;;;;;3.90;2.80;;;;;;;23.02;64.66;101150.97;4996912;28;104059;-56
2022/07/30 11:24:52;;;;;;;3.05;2.50;;;;;;;23.01;64.72;101143.81;4997259;28;103433;-56
2022/07/30 11:27:36;;;;;;;3.93;3.20;;;;;;;23.05;63.53;101141.16;4996676;28;102116;-56
2022/07/30 11:30:06;;;;;;;3.95;2.67;;;;;;;23.02;64.72;101134.31;4994049;28;102160;-56